Capitol Logistics 242


KHSV
Huntsville International Airport
Huntsville, Alabama, US
KRFD
Chicago/Rockford International Airport
Rockford, Illinois, US

Activity Log

Date Flight Route Aircraft Duration
01/25/2020 CPX242 RQZ BNA J73 GUIDO JOT B763 1h 42m
10/24/2019 CPX242 SALMS J39 BNA J73 OBK B763 1h 36m
07/31/2019 CPX242 KHSV/36L RQZ BNA J73 GUIDO JOT KRFD/07 B763 1h 26m
07/26/2019 CPX242 RQZ BNA J73 GUIDO JOT B763 1h 36m
07/18/2019 CPX242 RQZ BNA J73 GUIDO JOT B763 1h 34m
02/17/2019 CPX242 RQZ BNA J73 GUIDO JOT B763 1h 28m

Route Details

Aircraft Information
Primary: Boeing 767-300BDSF
Backup: Not Available
Route Data
Distance: 466nm
Sched. Duration: 1h 19m
Avg. Duration: 1h 33m (+14m)
Times Flown: 6
Recm'd Route: RQZ BNA J73 GUIDO JOT
Planned Altitude: 34,000ft
Origin Wx: KHSV 312153Z 16009KT 10SM R18R/3500V4500FT SCT250 19/09 A3020 RMK AO2 SLP224 T01890089 $
Dest. Wx: KRFD 312154Z 18016G24KT 10SM BKN110 15/03 A2990 RMK AO2 PK WND 17031/2109 SLP129 T01500028
Notes:

Financial History
Total Freight: 555,093lbs
Average Load: 92,516lbs/flt
Fuel Used: 94,379lbs
Avg. Fuel Used: 15,730lbs/flt
Fuel Expense: $84,941
Avg. Fuel Expense: $14,157
Avg. Fuel Cost: $0.90/lbs
Total Gross Income: $718,942
Pilot Pay: $1,134
Total Expenses: $77,958
Total Revenue: $553,784
Average Revenue: $119,823.59